createdAt,value
2023-03-24T00:01:23.632Z,11.16
2023-03-24T00:04:21.250Z,11.09
2023-03-24T00:07:18.794Z,11.15
2023-03-24T00:10:17.352Z,11.33
2023-03-24T00:13:13.898Z,11.27
2023-03-24T00:16:10.502Z,11.27
2023-03-24T00:19:06.017Z,11.12
2023-03-24T00:22:01.560Z,11.3
2023-03-24T00:24:57.117Z,11.22
2023-03-24T00:27:52.677Z,10.95
2023-03-24T00:30:53.460Z,11.19
2023-03-24T00:33:50.807Z,11.93
2023-03-24T00:36:46.419Z,11.47
2023-03-24T00:39:41.902Z,10.53
2023-03-24T00:42:39.506Z,11.09
2023-03-24T00:45:37.011Z,11
2023-03-24T00:48:33.641Z,10.55
2023-03-24T00:51:30.184Z,10.21
2023-03-24T00:54:31.751Z,10.27
2023-03-24T00:57:29.259Z,10.09
2023-03-24T01:00:26.893Z,10.02
2023-03-24T01:03:27.438Z,10.16
2023-03-24T01:06:25.913Z,10.38
2023-03-24T01:09:25.445Z,10.71
2023-03-24T01:12:22.009Z,10.63
2023-03-24T01:15:19.567Z,10.22
2023-03-24T01:18:16.111Z,9.97
2023-03-24T01:21:12.721Z,9.97
2023-03-24T01:24:09.274Z,10.08
2023-03-24T01:27:05.807Z,10.2
2023-03-24T01:30:03.364Z,10.47
2023-03-24T01:32:59.005Z,11.05
2023-03-24T01:35:57.562Z,10.95
2023-03-24T01:38:53.072Z,10.12
2023-03-24T01:41:48.610Z,9.8
2023-03-24T01:45:00.145Z,9.63
2023-03-24T01:47:56.821Z,10.06
2023-03-24T01:50:54.247Z,10.08
2023-03-24T01:53:51.775Z,10.12
2023-03-24T01:56:50.405Z,9.97
2023-03-24T01:59:51.906Z,10.21
2023-03-24T02:02:54.611Z,10
2023-03-24T02:05:51.023Z,10.01
2023-03-24T02:08:52.562Z,9.97
2023-03-24T02:11:48.120Z,9.66
2023-03-24T02:14:45.688Z,9.56
2023-03-24T02:17:54.355Z,9.81
2023-03-24T02:21:14.707Z,9.87
2023-03-24T02:24:31.210Z,9.8
2023-03-24T02:27:41.756Z,9.88
2023-03-24T02:30:51.270Z,9.87
2023-03-24T02:34:06.740Z,9.69
2023-03-24T02:37:21.272Z,9.85
2023-03-24T02:40:29.820Z,9.83
2023-03-24T02:43:36.327Z,9.78
2023-03-24T02:46:43.906Z,9.82
2023-03-24T02:49:46.424Z,9.46
2023-03-24T02:52:49.968Z,9.55
2023-03-24T02:55:52.564Z,9.22
2023-03-24T02:58:54.052Z,9.26
2023-03-24T03:01:53.667Z,9.28
2023-03-24T03:04:56.149Z,9.22
2023-03-24T03:07:58.480Z,9.19
2023-03-24T03:10:57.219Z,9.25
2023-03-24T03:13:57.790Z,8.95
2023-03-24T03:16:59.365Z,8.65
2023-03-24T03:20:08.045Z,8.79
2023-03-24T03:23:08.454Z,9.06
2023-03-24T03:26:11.955Z,9.04
2023-03-24T03:29:12.530Z,8.9
2023-03-24T03:32:18.028Z,9.14
2023-03-24T03:35:22.624Z,8.99
2023-03-24T03:38:26.163Z,8.94
2023-03-24T03:41:23.706Z,9.55
2023-03-24T03:44:20.239Z,9.2
2023-03-24T03:47:16.846Z,8.68
2023-03-24T03:50:12.374Z,8.6
2023-03-24T03:53:09.956Z,8.52
2023-03-24T03:56:07.495Z,8.66
2023-03-24T03:59:06.041Z,8.86
2023-03-24T04:02:09.676Z,8.89
2023-03-24T04:05:19.106Z,8.73
2023-03-24T04:08:25.660Z,8.88
2023-03-24T04:11:36.170Z,8.83
2023-03-24T04:14:45.672Z,8.77
2023-03-24T04:17:53.300Z,8.54
2023-03-24T04:20:57.783Z,8.67
2023-03-24T04:24:05.252Z,8.73
2023-03-24T04:27:09.894Z,8.8
2023-03-24T04:30:16.718Z,8.74
2023-03-24T04:33:21.878Z,8.97
2023-03-24T04:36:23.534Z,8.39
2023-03-24T04:39:28.017Z,8.51
2023-03-24T04:42:26.528Z,8.26
2023-03-24T04:45:25.113Z,8.61
2023-03-24T04:48:25.630Z,8.39
2023-03-24T04:51:27.175Z,8.44
2023-03-24T04:54:22.750Z,8.61
2023-03-24T04:57:20.282Z,8.85
2023-03-24T05:00:16.887Z,8.78
2023-03-24T05:03:13.426Z,8.9
2023-03-24T05:06:10.066Z,8.86
2023-03-24T05:09:05.512Z,8.65
2023-03-24T05:12:01.903Z,8.74
2023-03-24T05:14:57.624Z,9.02
2023-03-24T05:17:53.272Z,8.85
2023-03-24T05:20:48.803Z,8.95
2023-03-24T05:23:44.327Z,8.76
2023-03-24T05:26:40.915Z,9.17
2023-03-24T05:29:36.414Z,9.32
2023-03-24T05:32:32.358Z,9.28
2023-03-24T05:35:27.597Z,9.19
2023-03-24T05:38:23.160Z,9.27
2023-03-24T05:44:24.229Z,9.49
2023-03-24T05:47:19.781Z,9.45
2023-03-24T05:50:15.400Z,11.4
2023-03-24T05:53:10.905Z,12.67
2023-03-24T05:56:11.492Z,11.94
2023-03-24T05:59:07.042Z,10.81
2023-03-24T06:02:02.683Z,10.67
2023-03-24T06:05:01.161Z,10.63
2023-03-24T06:07:58.706Z,10.83
2023-03-24T06:11:00.249Z,10.74
2023-03-24T06:13:58.820Z,10.68
2023-03-24T06:16:59.362Z,10.95
2023-03-24T06:20:02.918Z,11.16
2023-03-24T06:22:59.469Z,11.25
2023-03-24T06:25:59.022Z,11.61
2023-03-24T06:28:58.610Z,11.42
2023-03-24T06:31:55.115Z,11.7
2023-03-24T06:34:51.719Z,11.8
2023-03-24T06:37:47.219Z,12.24
2023-03-24T06:40:45.777Z,12.1
2023-03-24T06:43:41.341Z,12.46
2023-03-24T06:46:36.953Z,12.54
2023-03-24T06:49:34.476Z,12.7
2023-03-24T06:52:30.017Z,12.98
2023-03-24T06:55:25.649Z,13.15
2023-03-24T06:58:21.110Z,13.1
2023-03-24T07:01:17.757Z,13.39
2023-03-24T07:04:14.252Z,13.6
2023-03-24T07:07:38.036Z,13.72
2023-03-24T07:10:13.374Z,14.07
2023-03-24T07:13:08.903Z,14.09
2023-03-24T07:16:05.581Z,14.26
2023-03-24T07:19:01.039Z,14.4
2023-03-24T07:21:56.613Z,14.7
2023-03-24T07:24:54.006Z,14.84
2023-03-24T07:27:53.704Z,15.03
2023-03-24T07:30:49.290Z,15.2
2023-03-24T07:33:44.834Z,15.43
2023-03-24T07:36:40.401Z,15.51
2023-03-24T07:39:36.987Z,15.81
2023-03-24T07:42:32.525Z,15.82
2023-03-24T07:45:28.161Z,15.88
2023-03-24T07:48:23.631Z,15.87
2023-03-24T07:51:19.188Z,15.85
2023-03-24T07:54:16.794Z,16.07
2023-03-24T07:57:13.352Z,16.12
2023-03-24T08:00:14.904Z,16.28
2023-03-24T08:03:14.690Z,16.4
2023-03-24T08:06:12.020Z,16.37
2023-03-24T08:09:09.531Z,16.41
2023-03-24T08:12:17.468Z,16.51
2023-03-24T08:15:07.643Z,16.65
2023-03-24T08:18:04.249Z,16.76
2023-03-24T08:21:01.801Z,17.22
2023-03-24T08:23:58.300Z,17.28
2023-03-24T08:26:59.864Z,17.38
2023-03-24T08:29:55.433Z,17.51
2023-03-24T08:36:00.615Z,17.85
2023-03-24T08:39:02.057Z,18.18
2023-03-24T08:42:02.604Z,18.24
2023-03-24T08:44:58.143Z,18.35
2023-03-24T08:47:54.733Z,18.64
2023-03-24T08:50:51.312Z,18.66
2023-03-24T08:53:46.856Z,19.01
2023-03-24T08:56:42.457Z,19.24
2023-03-24T08:59:38.987Z,19.23
2023-03-24T09:02:34.620Z,19.62
2023-03-24T09:05:44.034Z,19.64
2023-03-24T09:08:32.632Z,19.96
2023-03-24T09:11:28.184Z,20.08
2023-03-24T09:14:23.759Z,20.41
2023-03-24T09:17:20.345Z,20.39
2023-03-24T09:20:15.871Z,20.44
2023-03-24T09:23:12.469Z,20.6
2023-03-24T09:26:07.995Z,20.79
2023-03-24T09:29:04.585Z,21.07
2023-03-24T09:32:00.105Z,21.21
2023-03-24T09:34:56.671Z,21.33
2023-03-24T09:37:54.261Z,21.48
2023-03-24T09:40:54.799Z,21.8
2023-03-24T09:43:59.317Z,21.68
2023-03-24T09:47:00.931Z,21.86
2023-03-24T09:50:01.601Z,22.02
2023-03-24T09:53:04.959Z,21.83
2023-03-24T09:56:04.691Z,21.94
2023-03-24T09:59:05.086Z,22.2
2023-03-24T10:02:00.629Z,22.44
2023-03-24T10:04:59.212Z,22.81
2023-03-24T10:07:59.752Z,22.98
2023-03-24T10:11:03.308Z,22.91
2023-03-24T10:14:10.825Z,22.99
2023-03-24T10:17:16.326Z,23.1
2023-03-24T10:20:24.883Z,23.79
2023-03-24T10:23:33.411Z,24.11
2023-03-24T10:26:39.964Z,23.84
2023-03-24T10:29:42.524Z,24.28
2023-03-24T10:32:44.140Z,24.21
2023-03-24T10:35:48.744Z,24.78
2023-03-24T10:38:48.134Z,24.39
2023-03-24T10:41:47.638Z,24.59
2023-03-24T10:44:45.186Z,24.54
2023-03-24T10:47:43.830Z,24.88
2023-03-24T10:50:43.407Z,25.12
2023-03-24T10:53:41.905Z,25.33
2023-03-24T10:56:39.560Z,25.3
2023-03-24T10:59:37.003Z,25.23
2023-03-24T11:02:41.636Z,25.76
2023-03-24T11:05:43.041Z,25.67
2023-03-24T11:08:45.651Z,25.7
2023-03-24T11:11:46.220Z,25.69
2023-03-24T11:14:47.723Z,26.01
2023-03-24T11:17:47.290Z,25.8
2023-03-24T11:20:52.822Z,25.75
2023-03-24T11:23:51.362Z,25.75
2023-03-24T11:26:51.936Z,25.89
2023-03-24T11:29:54.473Z,25.82
2023-03-24T11:36:06.024Z,26.32
2023-03-24T11:39:04.102Z,26.37
2023-03-24T11:42:04.675Z,26.16
2023-03-24T11:45:04.200Z,26.07
2023-03-24T11:48:05.789Z,26.47
2023-03-24T11:51:04.304Z,26.34
2023-03-24T11:54:09.822Z,26.16
2023-03-24T11:57:12.416Z,26.44
2023-03-24T12:00:15.958Z,26.38
2023-03-24T12:03:37.460Z,26.82
2023-03-24T12:06:45.938Z,26.75
2023-03-24T12:09:55.458Z,26.8
2023-03-24T12:13:00.995Z,27.24
2023-03-24T12:16:15.541Z,27.49
2023-03-24T12:19:29.097Z,27.4
2023-03-24T12:22:38.571Z,27.92
2023-03-24T12:25:49.347Z,27.26
2023-03-24T12:29:06.623Z,27.75
2023-03-24T12:32:20.134Z,27.59
2023-03-24T12:35:30.632Z,27.58
2023-03-24T12:38:39.177Z,27.15
2023-03-24T12:41:51.675Z,27.72
2023-03-24T12:45:02.223Z,27.85
2023-03-24T12:48:15.727Z,28.6
2023-03-24T12:51:22.228Z,28.4
2023-03-24T12:54:31.766Z,28.63
2023-03-24T12:57:32.349Z,28.32
2023-03-24T13:00:32.847Z,29.23
2023-03-24T13:03:34.490Z,28.71
2023-03-24T13:06:34.012Z,29.34
2023-03-24T13:09:41.516Z,29.44
2023-03-24T13:12:46.072Z,29.39
2023-03-24T13:15:49.785Z,29.04
2023-03-24T13:18:54.101Z,28.66
2023-03-24T13:21:52.699Z,28.16
2023-03-24T13:24:51.213Z,28.72
2023-03-24T13:27:53.788Z,29.74
2023-03-24T13:31:00.361Z,29.55
2023-03-24T13:34:00.848Z,29.24
2023-03-24T13:37:05.436Z,29.2
2023-03-24T13:40:06.944Z,29.66
2023-03-24T13:43:07.513Z,29.9
2023-03-24T13:46:13.114Z,29.47
2023-03-24T13:49:12.604Z,29.52
2023-03-24T13:52:15.141Z,28.96
2023-03-24T13:55:14.715Z,29.7
2023-03-24T13:58:17.208Z,29.7
2023-03-24T14:01:24.783Z,29.72
2023-03-24T14:04:28.314Z,29.73
2023-03-24T14:07:30.866Z,30.4
2023-03-24T14:10:34.383Z,31.16
2023-03-24T14:13:38.978Z,30.73
2023-03-24T14:16:44.499Z,29.6
2023-03-24T14:19:42.053Z,28.84
2023-03-24T14:22:47.579Z,28.41
2023-03-24T14:25:54.104Z,28.63
2023-03-24T14:28:53.675Z,28.62
2023-03-24T14:31:58.132Z,29.85
2023-03-24T14:34:58.756Z,30.31
2023-03-24T14:37:58.279Z,30.69
2023-03-24T14:41:03.836Z,30.47
2023-03-24T14:44:01.395Z,31.8
2023-03-24T14:47:09.010Z,30.4
2023-03-24T14:50:13.454Z,31.65
2023-03-24T14:53:17.972Z,31.56
2023-03-24T14:56:16.543Z,30.8
2023-03-24T14:59:22.168Z,31.71
2023-03-24T15:02:27.681Z,30.4
2023-03-24T15:05:34.103Z,30.67
2023-03-24T15:08:31.710Z,30.28
2023-03-24T15:11:32.245Z,31.63
2023-03-24T15:14:28.827Z,32.32
2023-03-24T15:17:26.360Z,34.31
2023-03-24T15:20:25.927Z,33.84
2023-03-24T15:23:25.474Z,34.73
2023-03-24T15:26:23.039Z,36.35
2023-03-24T15:29:18.613Z,34.87
2023-03-24T15:32:17.146Z,35.31
2023-03-24T15:35:15.712Z,36.65
2023-03-24T15:38:21.238Z,36.93
2023-03-24T15:41:23.761Z,36.4
2023-03-24T15:44:24.340Z,35.93
2023-03-24T15:47:22.875Z,37.23
2023-03-24T15:50:29.463Z,36.99
2023-03-24T15:53:36.970Z,38.29
2023-03-24T15:56:36.564Z,38.72
2023-03-24T15:59:37.077Z,36.64
2023-03-24T16:02:38.702Z,34.67
2023-03-24T16:05:36.158Z,34.59
2023-03-24T16:08:35.697Z,32.12
2023-03-24T16:11:32.240Z,29.29
2023-03-24T16:14:28.804Z,28.54
2023-03-24T16:17:25.392Z,27.64
2023-03-24T16:20:21.961Z,27.34
2023-03-24T16:23:19.502Z,26.99
2023-03-24T16:26:16.036Z,26.5
2023-03-24T16:29:14.591Z,26.11
2023-03-24T16:32:11.197Z,25.57
2023-03-24T16:35:08.726Z,25.29
2023-03-24T16:38:04.278Z,24.9
2023-03-24T16:41:05.848Z,24.25
2023-03-24T16:44:04.422Z,24.1
2023-03-24T16:47:03.932Z,23.83
2023-03-24T16:50:00.483Z,23.45
2023-03-24T16:52:56.050Z,22.94
2023-03-24T16:55:51.608Z,22.31
2023-03-24T16:58:49.190Z,22.25
2023-03-24T17:02:04.720Z,21.67
2023-03-24T17:05:02.237Z,21.58
2023-03-24T17:07:58.806Z,21.56
2023-03-24T17:10:55.353Z,21.52
2023-03-24T17:13:53.958Z,21.36
2023-03-24T17:16:52.496Z,21.35
2023-03-24T17:19:48.996Z,21.22
2023-03-24T17:22:50.586Z,21.29
2023-03-24T17:25:48.177Z,21.22
2023-03-24T17:28:50.676Z,20.83
2023-03-24T17:31:46.270Z,20.41
2023-03-24T17:34:44.792Z,20.13
2023-03-24T17:37:41.357Z,20.29
2023-03-24T17:40:41.908Z,20.08
2023-03-24T17:43:37.420Z,20.43
2023-03-24T17:46:33.071Z,20.46
2023-03-24T17:49:28.611Z,20.14
2023-03-24T17:52:24.133Z,19.96
2023-03-24T17:55:19.683Z,19.91
2023-03-24T17:58:16.215Z,19.84
2023-03-24T18:01:14.896Z,19.75
2023-03-24T18:04:10.437Z,19.84
2023-03-24T18:07:05.896Z,19.85
2023-03-24T18:10:04.498Z,19.69
2023-03-24T18:13:01.034Z,19.59
2023-03-24T18:16:02.034Z,18.85
2023-03-24T18:19:00.168Z,18.64
2023-03-24T18:21:55.673Z,18.91
2023-03-24T18:24:54.287Z,18.96
2023-03-24T18:27:49.821Z,18.99
2023-03-24T18:30:45.420Z,18.98
2023-03-24T18:33:43.069Z,18.84
2023-03-24T18:36:39.527Z,18.41
2023-03-24T18:39:39.049Z,18.43
2023-03-24T18:42:34.626Z,18.53
2023-03-24T18:45:30.204Z,18.37
2023-03-24T18:48:25.734Z,18.37
2023-03-24T18:51:25.317Z,18.45
2023-03-24T18:54:25.853Z,18.39
2023-03-24T18:57:26.357Z,18.32
2023-03-24T19:00:26.946Z,18.32
2023-03-24T19:03:28.573Z,18.13
2023-03-24T19:06:35.067Z,18
2023-03-24T19:09:37.650Z,17.84
2023-03-24T19:15:54.664Z,17.55
2023-03-24T19:18:57.186Z,17.43
2023-03-24T19:21:59.751Z,17.1
2023-03-24T19:25:01.274Z,16.85
2023-03-24T19:28:02.897Z,16.78
2023-03-24T19:31:06.409Z,16.63
2023-03-24T19:34:08.963Z,16.65
2023-03-24T19:37:16.507Z,16.67
2023-03-24T19:40:18.996Z,16.38
2023-03-24T19:43:20.553Z,16.42
2023-03-24T19:46:22.186Z,15.84
2023-03-24T19:49:22.608Z,15.86
2023-03-24T19:52:23.170Z,16.02
2023-03-24T19:55:23.693Z,15.46
2023-03-24T19:58:25.275Z,15.07
2023-03-24T20:01:25.808Z,15.08
2023-03-24T20:04:27.355Z,15.16
2023-03-24T20:07:29.862Z,15.31
2023-03-24T20:10:25.502Z,15.67
2023-03-24T20:13:24.020Z,15.58
2023-03-24T20:16:20.600Z,15.48
2023-03-24T20:19:17.213Z,15.3
2023-03-24T20:22:15.845Z,15.33
2023-03-24T20:25:14.314Z,15.2
2023-03-24T20:28:09.816Z,15.08
2023-03-24T20:31:11.433Z,14.93
2023-03-24T20:34:08.955Z,14.76
2023-03-24T20:37:08.442Z,14.59
2023-03-24T20:40:09.116Z,14.43
2023-03-24T20:43:05.662Z,14.44
2023-03-24T20:46:02.360Z,14.61
2023-03-24T20:48:58.793Z,14.82
2023-03-24T20:52:05.133Z,14.8
2023-03-24T20:55:10.823Z,14.87
2023-03-24T20:58:12.291Z,14.84
2023-03-24T21:01:21.893Z,14.72
2023-03-24T21:04:24.382Z,14.62
2023-03-24T21:07:24.910Z,14.57
2023-03-24T21:10:25.454Z,14.55
2023-03-24T21:13:34.828Z,14.52
2023-03-24T21:16:36.606Z,14.5
2023-03-24T21:19:33.118Z,14.4
2023-03-24T21:22:41.605Z,14.25
2023-03-24T21:25:43.160Z,14.26
2023-03-24T21:28:54.321Z,14.08
2023-03-24T21:32:05.239Z,14
2023-03-24T21:35:08.756Z,13.9
2023-03-24T21:38:15.293Z,13.86
2023-03-24T21:41:16.889Z,13.91
2023-03-24T21:44:19.423Z,13.91
2023-03-24T21:50:34.433Z,14.07
2023-03-24T21:53:37.950Z,14.22
2023-03-24T21:56:38.540Z,14.38
2023-03-24T21:59:40.091Z,14.38
2023-03-24T22:02:37.758Z,14.42
2023-03-24T22:05:33.198Z,14.41
2023-03-24T22:08:31.008Z,14.4
2023-03-24T22:11:32.321Z,14.34
2023-03-24T22:14:27.874Z,14.38
2023-03-24T22:17:23.539Z,14.4
2023-03-24T22:20:18.951Z,14.36
2023-03-24T22:23:14.511Z,14.22
2023-03-24T22:26:16.077Z,14.2
2023-03-24T22:29:13.677Z,14.13
2023-03-24T22:32:17.243Z,14.1
2023-03-24T22:35:17.818Z,14.04
2023-03-24T22:38:18.306Z,13.91
2023-03-24T22:41:18.849Z,13.75
2023-03-24T22:44:19.368Z,13.78
2023-03-24T22:47:19.959Z,13.76
2023-03-24T22:50:20.484Z,13.61
2023-03-24T22:53:21.066Z,13.52
2023-03-24T22:56:22.616Z,13.44
2023-03-24T22:59:19.155Z,13.51
2023-03-24T23:02:14.804Z,13.54
2023-03-24T23:05:12.308Z,13.46
2023-03-24T23:08:08.847Z,13.4
2023-03-24T23:11:06.379Z,13.38
2023-03-24T23:14:04.953Z,13.39
2023-03-24T23:17:01.496Z,13.44
2023-03-24T23:19:58.021Z,13.47
2023-03-24T23:22:54.637Z,13.4
2023-03-24T23:25:51.337Z,13.56
2023-03-24T23:28:47.730Z,13.81
2023-03-24T23:31:44.346Z,13.97
2023-03-24T23:34:42.842Z,14.06
2023-03-24T23:37:39.590Z,14.05
2023-03-24T23:40:43.951Z,14.04
2023-03-24T23:43:40.496Z,14.03
2023-03-24T23:46:36.091Z,13.99
2023-03-24T23:49:31.607Z,13.97
2023-03-24T23:52:28.233Z,13.97
2023-03-24T23:55:26.720Z,13.94
2023-03-24T23:58:23.332Z,13.86
